Flight Track Log - Related Links

Times and Time Zones

All times are in EST time to prevent confusion due to time zone crossing. See the N450S flight status page for this flight to view local times or setup timezone preferences in your user account.

Time Position Orientation Groundspeed Altitude Reporting Facility
EST Latitude Longitude Course Direction KTS MPH feet Rate Location/Type
Thu 06:34:29 PM 30.0589 -90.0319 356° North 148 170 600  Level Houston Center
Thu 06:34:53 PM 30.0778 -90.0336 356° North 150 173 1,400 1,529 Climbing Houston Center
Thu 06:36:11 PM 30.1311 -90.0233 North 162 186 3,200 1,623 Climbing Houston Center
Thu 06:36:55 PM 30.1689 -90.0081 19° North 179 206 4,700 1,548 Climbing Houston Center
Thu 06:37:13 PM 30.1772 -90.0039 23° Northeast 169 194 4,800 1,600 Climbing Houston Center
Thu 06:37:55 PM 30.2183 -89.9867 20° North 197 227 6,300 1,548 Climbing Houston Center
Thu 06:38:15 PM 30.2289 -89.9806 27° Northeast 183 211 6,400 1,463 Climbing Houston Center
Thu 06:39:17 PM 30.2939 -89.9514 21° North 205 236 8,300 1,694 Climbing Houston Center
Thu 06:40:19 PM 30.3486 -89.9247 23° Northeast 210 242 9,900 1,488 Climbing Houston Center
Thu 06:41:22 PM 30.4058 -89.9189 North 204 235 11,400 1,488 Climbing Houston Center
Thu 06:42:24 PM 30.4611 -89.8942 21° North 213 245 13,000 1,500 Climbing Houston Center
Thu 06:43:26 PM 30.5178 -89.8625 26° Northeast 223 257 14,500 1,500 Climbing Houston Center
Thu 06:44:28 PM 30.5742 -89.8292 27° Northeast 226 260 16,100 1,500 Climbing Houston Center
Thu 06:45:30 PM 30.6328 -89.7956 26° Northeast 233 268 17,600 1,306 Climbing Houston Center
Thu 06:46:32 PM 30.7031 -89.7553 26° Northeast 235 270 18,800 1,161 Climbing Houston Center
Thu 06:47:34 PM 30.7653 -89.7194 26° Northeast 247 284 20,000 1,065 Climbing Houston Center
Thu 06:48:36 PM 30.8281 -89.6839 26° Northeast 249 287 21,000 919 Climbing Houston Center
Thu 06:49:38 PM 30.8900 -89.6467 27° Northeast 251 289 21,900 864 Climbing Houston Center
Thu 06:50:41 PM 30.9533 -89.6100 26° Northeast 253 291 22,800 768 Climbing Houston Center
Thu 06:51:43 PM 31.0186 -89.5711 27° Northeast 262 302 23,500 726 Climbing Houston Center
Thu 06:52:45 PM 31.1019 -89.5231 26° Northeast 276 318 24,300 726 Climbing Houston Center
Thu 06:53:47 PM 31.1708 -89.4822 27° Northeast 279 321 25,000 339 Climbing Houston Center
Thu 06:54:49 PM 31.2461 -89.4394 26° Northeast 298 343 25,000  Level Houston Center
Thu 06:55:51 PM 31.3178 -89.3961 27° Northeast 309 356 25,000  Level Houston Center
Thu 06:56:53 PM 31.4133 -89.3394 27° Northeast 320 368 25,000  Level Houston Center
Thu 06:57:55 PM 31.4944 -89.2958 25° Northeast 321 369 25,000  Level Houston Center
Thu 06:58:58 PM 31.5744 -89.2517 25° Northeast 319 367 25,000  Level Houston Center
Thu 07:00:00 PM 31.6536 -89.2078 25° Northeast 317 365 25,000  Level Houston Center
Thu 07:01:02 PM 31.7325 -89.1644 25° Northeast 314 361 25,000  Level Houston Center
Thu 07:02:04 PM 31.8119 -89.1200 25° Northeast 315 362 25,000  Level Houston Center
Thu 07:02:54 PM 31.8925 -89.0750 25° Northeast 313 360 25,000  Level Memphis Center
Thu 07:03:56 PM 31.9603 -89.0378 25° Northeast 313 360 25,000  Level Memphis Center
Thu 07:04:58 PM 32.0542 -88.9864 25° Northeast 313 360 25,000  Level Memphis Center
Thu 07:06:01 PM 32.1311 -88.9439 25° Northeast 310 357 25,000  Level Memphis Center
Thu 07:07:03 PM 32.2086 -88.9006 25° Northeast 310 357 25,000  Level Memphis Center
Thu 07:08:05 PM 32.2850 -88.8586 25° Northeast 308 354 25,000  Level Memphis Center
Thu 07:09:07 PM 32.3786 -88.8042 26° Northeast 311 358 25,000  Level Memphis Center
Thu 07:10:09 PM 32.4561 -88.7594 26° Northeast 312 359 25,000  Level Memphis Center
Thu 07:11:11 PM 32.5314 -88.7136 27° Northeast 311 358 25,000  Level Memphis Center
Thu 07:12:13 PM 32.6053 -88.6694 27° Northeast 305 351 25,000  Level Memphis Center
Thu 07:13:15 PM 32.6797 -88.6247 27° Northeast 302 348 25,000  Level Memphis Center
Thu 07:14:17 PM 32.7708 -88.5703 27° Northeast 306 352 25,000  Level Memphis Center
Thu 07:15:19 PM 32.8472 -88.5250 26° Northeast 309 356 25,000  Level Memphis Center
Thu 07:16:21 PM 32.9225 -88.4789 27° Northeast 308 354 25,000  Level Memphis Center
Thu 07:17:23 PM 32.9986 -88.4342 26° Northeast 307 353 25,000  Level Memphis Center
Thu 07:18:25 PM 33.0733 -88.3883 27° Northeast 305 351 25,000  Level Memphis Center
Thu 07:19:27 PM 33.1631 -88.3333 27° Northeast 306 352 25,000  Level Memphis Center
Thu 07:20:29 PM 33.2372 -88.2872 27° Northeast 304 350 25,000  Level Memphis Center
Thu 07:21:31 PM 33.3125 -88.2422 27° Northeast 303 349 25,000  Level Memphis Center
Thu 07:22:33 PM 33.3914 -88.1956 26° Northeast 309 356 25,000  Level Memphis Center
Thu 07:23:35 PM 33.4675 -88.1492 27° Northeast 308 354 25,000  Level Memphis Center
Thu 07:24:37 PM 33.5436 -88.1025 27° Northeast 308 354 25,000  Level Memphis Center
Thu 07:25:39 PM 33.6350 -88.0458 27° Northeast 308 354 25,000  Level Memphis Center
Thu 07:26:41 PM 33.7103 -87.9989 27° Northeast 306 352 25,000  Level Memphis Center
Thu 07:27:44 PM 33.7861 -87.9522 27° Northeast 306 352 25,000  Level Memphis Center
Thu 07:28:46 PM 33.8672 -87.9003 28° Northeast 307 353 25,000  Level Memphis Center
Thu 07:29:48 PM 33.9450 -87.8531 27° Northeast 309 356 25,000  Level Memphis Center
Thu 07:30:50 PM 34.0225 -87.8050 27° Northeast 309 356 25,000  Level Memphis Center
Thu 07:31:52 PM 34.0994 -87.7564 28° Northeast 309 356 25,000  Level Memphis Center
Thu 07:32:54 PM 34.1775 -87.7078 27° Northeast 311 358 25,000  Level Memphis Center
Thu 07:33:56 PM 34.2667 -87.6514 28° Northeast 309 356 25,000  Level Memphis Center
Thu 07:34:58 PM 34.3436 -87.6039 27° Northeast 308 354 25,000  Level Memphis Center
Thu 07:36:00 PM 34.4197 -87.5564 27° Northeast 306 352 25,000  Level Memphis Center
Thu 07:37:02 PM 34.4978 -87.5064 28° Northeast 309 356 25,000  Level Memphis Center
Thu 07:38:04 PM 34.5750 -87.4581 27° Northeast 310 357 25,000  Level Memphis Center
Thu 07:39:06 PM 34.6519 -87.4092 28° Northeast 309 356 25,000  Level Memphis Center
Thu 07:39:31 PM 34.6903 -87.3850 27° Northeast 309 356 25,000  Level Memphis Center
Thu 07:40:33 PM 34.7669 -87.3367 27° Northeast 308 354 25,000  Level Memphis Center
Thu 07:41:35 PM 34.8447 -87.2875 27° Northeast 310 357 25,000  Level Memphis Center
Thu 07:42:37 PM 34.9211 -87.2381 28° Northeast 309 356 25,000  Level Memphis Center
Thu 07:43:39 PM 34.9983 -87.1908 27° Northeast 309 356 25,000  Level Memphis Center
Thu 07:44:41 PM 35.0756 -87.1414 28° Northeast 310 357 25,000  Level Memphis Center
Thu 07:45:43 PM 35.1506 -87.0922 28° Northeast 308 354 25,000  Level Memphis Center
Thu 07:46:45 PM 35.2425 -87.0353 27° Northeast 309 356 25,000  Level Memphis Center
Thu 07:47:47 PM 35.3175 -86.9853 29° Northeast 308 354 25,000  Level Memphis Center
Thu 07:48:49 PM 35.3942 -86.9372 27° Northeast 307 353 25,000  Level Memphis Center
Thu 07:49:51 PM 35.4700 -86.8889 27° Northeast 306 352 25,000  Level Memphis Center
Thu 07:50:53 PM 35.5444 -86.8394 28° Northeast 304 350 25,000  Level Memphis Center
Thu 07:51:55 PM 35.6211 -86.7897 28° Northeast 306 352 25,000  Level Memphis Center
Thu 07:52:57 PM 35.7103 -86.7303 28° Northeast 309 356 25,000  Level Memphis Center
Thu 07:53:59 PM 35.7861 -86.6811 28° Northeast 308 354 25,000  Level Memphis Center
Thu 07:55:01 PM 35.8611 -86.6314 28° Northeast 305 351 25,000  Level Memphis Center
Thu 07:56:04 PM 35.9364 -86.5831 27° Northeast 304 350 25,000  Level Memphis Center
Thu 07:57:06 PM 36.0108 -86.5336 28° Northeast 302 348 25,000  Level Memphis Center
Thu 07:58:08 PM 36.0856 -86.4842 28° Northeast 303 349 25,000  Level Memphis Center
Thu 07:59:12 PM 36.1728 -86.4269 28° Northeast 303 349 25,000  Level Memphis Center
Thu 08:00:14 PM 36.2478 -86.3781 28° Northeast 303 349 25,000  Level Memphis Center
Thu 08:01:16 PM 36.3217 -86.3283 28° Northeast 302 348 25,000  Level Memphis Center
Thu 08:02:18 PM 36.3969 -86.2789 28° Northeast 303 349 25,000  Level Memphis Center
Thu 08:03:20 PM 36.4856 -86.2200 28° Northeast 306 352 25,000  Level Memphis Center
Thu 08:04:22 PM 36.5603 -86.1692 29° Northeast 305 351 25,000  Level Memphis Center
Thu 08:05:24 PM 36.6364 -86.1194 28° Northeast 307 353 25,000  Level Memphis Center
Thu 08:06:26 PM 36.7117 -86.0675 29° Northeast 306 352 25,000  Level Memphis Center
Thu 08:07:28 PM 36.7886 -86.0167 28° Northeast 309 356 25,000  Level Memphis Center
Thu 08:08:30 PM 36.8653 -85.9656 28° Northeast 310 357 25,000  Level Memphis Center
Thu 08:09:32 PM 36.9417 -85.9131 29° Northeast 311 358 25,000  Level Memphis Center
Thu 08:10:41 PM 37.0317 -85.8531 28° Northeast 311 358 25,000  Level Indianapolis Center
Thu 08:11:43 PM 37.1089 -85.8003 29° Northeast 311 358 25,000  Level Indianapolis Center
Thu 08:12:45 PM 37.1992 -85.7400 28° Northeast 313 360 25,000  Level Indianapolis Center
Thu 08:13:47 PM 37.2769 -85.6875 28° Northeast 316 364 25,000  Level Indianapolis Center
Thu 08:14:49 PM 37.3450 -85.6408 29° Northeast 315 362 25,000  Level Indianapolis Center
Thu 08:15:50 PM 37.4214 -85.5883 29° Northeast 313 360 25,000  Level Indianapolis Center
Thu 08:16:52 PM 37.5133 -85.5250 29° Northeast 313 360 25,000  Level Indianapolis Center
Thu 08:17:54 PM 37.5803 -85.4778 29° Northeast 308 354 25,000  Level Indianapolis Center
Thu 08:18:56 PM 37.6694 -85.4175 28° Northeast 310 357 25,000  Level Indianapolis Center
Thu 08:19:58 PM 37.7453 -85.3642 29° Northeast 313 360 25,000  Level Indianapolis Center
Thu 08:20:59 PM 37.8217 -85.3111 29° Northeast 312 359 25,000  Level Indianapolis Center
Thu 08:22:01 PM 37.8944 -85.2617 28° Northeast 316 364 25,000  Level Indianapolis Center
Thu 08:23:03 PM 37.9719 -85.2081 29° Northeast 315 362 25,000  Level Indianapolis Center
Thu 08:24:04 PM 38.0525 -85.1506 29° Northeast 310 357 25,000  Level Indianapolis Center
Thu 08:25:06 PM 38.1300 -85.0961 29° Northeast 316 364 25,000  Level Indianapolis Center
Thu 08:26:08 PM 38.2200 -85.0331 29° Northeast 316 364 25,000  Level Indianapolis Center
Thu 08:27:10 PM 38.2950 -84.9806 29° Northeast 310 357 25,000  Level Indianapolis Center
Thu 08:28:11 PM 38.3725 -84.9256 29° Northeast 315 362 25,000  Level Indianapolis Center
Thu 08:29:13 PM 38.4514 -84.8703 29° Northeast 320 368 25,000  Level Indianapolis Center
Thu 08:30:15 PM 38.5272 -84.8167 29° Northeast 313 360 25,000  Level Indianapolis Center
Thu 08:31:16 PM 38.6036 -84.7617 29° Northeast 312 359 25,000  Level Indianapolis Center
Thu 08:32:18 PM 38.6786 -84.7078 29° Northeast 309 356 25,000  Level Indianapolis Center
Thu 08:33:20 PM 38.7669 -84.6444 29° Northeast 308 354 25,000  Level Indianapolis Center
Thu 08:34:22 PM 38.8414 -84.5908 29° Northeast 306 352 25,000  Level Indianapolis Center
Thu 08:35:23 PM 38.9167 -84.5361 29° Northeast 311 358 25,000  Level Indianapolis Center
Thu 08:36:25 PM 38.9847 -84.4883 29° Northeast 311 358 25,000  Level Indianapolis Center
Thu 08:37:27 PM 39.0758 -84.4219 29° Northeast 314 361 25,000  Level Indianapolis Center
Thu 08:38:29 PM 39.1525 -84.3667 29° Northeast 316 364 25,000  Level Indianapolis Center
Thu 08:39:30 PM 39.2289 -84.3133 28° Northeast 312 359 25,000  Level Indianapolis Center
Thu 08:40:32 PM 39.3050 -84.2572 30° Northeast 315 362 25,000  Level Indianapolis Center
Thu 08:41:34 PM 39.3803 -84.2031 29° Northeast 310 357 25,000  Level Indianapolis Center
Thu 08:42:36 PM 39.4556 -84.1467 30° Northeast 311 358 25,000  Level Indianapolis Center
Thu 08:43:37 PM 39.5317 -84.0919 29° Northeast 313 360 25,000  Level Indianapolis Center
Thu 08:44:39 PM 39.6214 -84.0264 29° Northeast 308 354 25,000  Level Indianapolis Center
Thu 08:45:41 PM 39.6975 -83.9697 30° Northeast 314 361 25,000  Level Indianapolis Center
Thu 08:46:42 PM 39.7742 -83.9133 29° Northeast 315 362 25,000  Level Indianapolis Center
Thu 08:47:44 PM 39.8500 -83.8578 29° Northeast 311 358 25,000  Level Indianapolis Center
Thu 08:48:46 PM 39.9261 -83.8006 30° Northeast 312 359 25,000  Level Indianapolis Center
Thu 08:49:47 PM 40.0033 -83.7436 29° Northeast 316 364 25,000  Level Indianapolis Center
Thu 08:50:49 PM 40.0800 -83.6853 30° Northeast 317 365 25,000  Level Indianapolis Center
Thu 08:51:51 PM 40.1575 -83.6278 30° Northeast 318 366 25,000 -244 Level Indianapolis Center
Thu 08:52:52 PM 40.2361 -83.5694 30° Northeast 322 371 24,500 -683 Descending Indianapolis Center
Thu 08:53:54 PM 40.3206 -83.5056 30° Northeast 345 397 23,600 -1,220 Descending Indianapolis Center
Thu 08:54:55 PM 40.4264 -83.4256 30° Northeast 363 418 22,000 -1,512 Descending Indianapolis Center
Thu 08:55:57 PM 40.5142 -83.3586 30° Northeast 366 421 20,500 -1,452 Descending Indianapolis Center
Thu 08:56:59 PM 40.5994 -83.2942 30° Northeast 356 410 19,000 -1,415 Descending Indianapolis Center
Thu 08:58:00 PM 40.6831 -83.2292 31° Northeast 349 402 17,600 -1,561 Descending Indianapolis Center
Thu 08:59:02 PM 40.7653 -83.1681 29° Northeast 342 394 15,800 -1,707 Descending Indianapolis Center
Thu 09:00:03 PM 40.8478 -83.1039 30° Northeast 332 382 14,100 -1,613 Descending Indianapolis Center
Thu 09:00:35 PM 40.8878 -83.0731 30° Northeast 330 380 13,300 -1,532 Descending Cleveland Center
Thu 09:01:37 PM 40.9639 -83.0125 31° Northeast 318 366 11,700 -1,597 Descending Cleveland Center
Thu 09:02:39 PM 41.0378 -82.9561 30° Northeast 306 352 10,000 -1,722 Descending Cleveland Center
Thu 09:03:32 PM 41.1081 -82.9019 30° Northeast 288 331 8,400 -1,839 Descending Cleveland Center
Thu 09:03:41 PM 41.1194 -82.8944 26° Northeast 290 334 8,100 -1,690 Descending Cleveland Center
Thu 09:04:43 PM 41.1878 -82.8411 30° Northeast 284 327 6,400 -1,642 Descending Cleveland Center
Thu 09:05:27 PM 41.2406 -82.8003 30° Northeast 282 325 5,200 -1,475 Descending Cleveland Center
Thu 09:05:44 PM 41.2569 -82.7867 32° Northeast 285 328 4,900 -532 Descending Cleveland Center
Thu 09:06:46 PM 41.3208 -82.7372 30° Northeast 284 327 4,500 -962 Descending Cleveland Center
Thu 09:09:16 PM 41.4239 -82.5953 46° Northeast 225 259 1,500 -1,019 Descending Indianapolis Center
Thu 09:10:18 PM 41.4336 -82.6331 289° West 141 162 900 -581 Descending Indianapolis Center
Thu 09:12:00 PM 41.4333 -82.6500 270° West  Level FlightAware Approximate

Login

Don't have an account? Register now (free) for customized features, flight alerts, and more!